Stations météo

Publicité
Vannes/Sene, France (7210): Température de l'air & dewpoint: 20.05.2019 17:00:00 - 26.05.2019 17:00:00 (CEST)Vannes/Sene, France (7210): Vitesse du vent & gusts: 20.05.2019 17:00:00 - 26.05.2019 17:00:00 (CEST)Vannes/Sene, France (7210): Direction du vent: 20.05.2019 17:00:00 - 26.05.2019 17:00:00 (CEST)Vannes/Sene, France (7210): Ensoleillement: 20.05.2019 17:00:00 - 26.05.2019 17:00:00 (CEST)Vannes/Sene, France (7210): Quantités de précipitations: 20.05.2019 17:00:00 - 26.05.2019 17:00:00 (CEST)
Date & Time tt [°C] td [°C] ff [km/h] ff [knt] fx [km/h] fx [knt] dd sd [min] rr [mm]
26.05.2019 17:00:00 16,4 12,4 13 7 28 15 W 0 0,0
26.05.2019 16:00:00 16,8 13,3 15 8 29 16 WSW 0 0,0
26.05.2019 15:00:00 16,1 12,8 11 6 24 13 WSW 0 0,0
26.05.2019 14:00:00 16,2 12,4 9 5 18 10 WSW 0 -
26.05.2019 13:00:00 16,1 11,9 8 4 18 10 WSW 0 0,0
26.05.2019 12:00:00 15,6 11,6 9 5 26 14 W 0 0,0
26.05.2019 11:00:00 17,1 11,8 5 3 18 10 WSW 12 0,0
26.05.2019 10:00:00 15,1 11,3 8 4 18 10 W 0 0,0
26.05.2019 09:00:00 14,8 10,6 9 5 28 15 WNW 0 0,0
26.05.2019 08:00:00 14,0 11,3 8 4 24 13 WNW 0 -
26.05.2019 07:00:00 13,8 12,2 9 5 18 10 W 0 0,0
26.05.2019 06:00:00 13,4 12,6 4 2 11 6 W 0 0,0
26.05.2019 05:00:00 13,2 12,7 2 1 8 4 W 0 0,0
26.05.2019 04:00:00 12,4 12,1 2 1 8 4 W 0 0,0
26.05.2019 03:00:00 12,1 11,5 4 2 13 7 NW 0 0,0
26.05.2019 02:00:00 12,5 11,7 2 1 13 7 NW 0 -
26.05.2019 01:00:00 12,7 11,9 5 3 9 5 NW 0 0,0
26.05.2019 00:00:00 13,8 12,9 5 3 11 6 WNW 0 0,0
25.05.2019 23:00:00 14,4 12,9 8 4 15 8 W 0 0,0
25.05.2019 22:00:00 14,9 12,8 5 3 22 12 W 0 0,0
25.05.2019 21:00:00 16,5 11,8 8 4 31 17 W 24 0,0
25.05.2019 20:00:00 18,6 12,1 11 6 29 16 W 48 -
25.05.2019 19:00:00 20,0 13,0 13 7 37 20 W 12 0,0
25.05.2019 18:00:00 18,2 13,7 18 10 34 18 WSW 0 0,0
25.05.2019 17:00:00 18,6 11,7 9 5 28 15 W 6 0,0
25.05.2019 16:00:00 19,9 12,4 13 7 29 16 WSW 54 0,0
25.05.2019 15:00:00 20,5 13,5 9 5 21 11 WSW 24 0,0
25.05.2019 14:00:00 18,1 11,4 5 3 18 10 WNW 0 -
25.05.2019 13:00:00 17,9 11,7 5 3 15 8 WSW 0 0,0
25.05.2019 12:00:00 17,2 11,2 4 2 16 9 NNE 6 0,0
25.05.2019 11:00:00 15,9 10,9 8 4 18 10 NNW 0 0,0
25.05.2019 10:00:00 15,5 10,7 8 4 21 11 NNW 36 0,0
25.05.2019 09:00:00 15,2 10,6 9 5 18 10 NW 60 0,0
25.05.2019 08:00:00 13,9 10,5 5 3 15 8 NW 48 -
25.05.2019 07:00:00 11,1 9,8 5 3 13 7 WNW 0 0,0
25.05.2019 06:00:00 11,5 10,1 5 3 13 7 W 0 0,0
25.05.2019 05:00:00 10,8 9,6 5 3 11 6 W 0 0,0
25.05.2019 04:00:00 10,7 9,1 8 4 13 7 WNW 0 0,0
25.05.2019 03:00:00 10,6 8,9 5 3 13 7 WNW 0 0,0
25.05.2019 02:00:00 12,0 9,6 5 3 13 7 NNW 0 -
25.05.2019 01:00:00 12,1 9,7 8 4 11 6 NW 0 0,0
25.05.2019 00:00:00 13,6 9,8 8 4 16 9 NNW 0 0,0
24.05.2019 23:00:00 14,8 9,8 9 5 22 12 NNW 0 0,0
24.05.2019 22:00:00 16,5 10,1 15 8 34 18 NNW 0 0,0
24.05.2019 21:00:00 18,0 10,4 13 7 31 17 N 18 0,0
24.05.2019 20:00:00 18,7 10,3 18 10 29 16 N 0 -
24.05.2019 19:00:00 19,0 10,5 16 9 29 16 N 0 0,0
24.05.2019 18:00:00 20,2 10,3 11 6 29 16 N 12 0,0
24.05.2019 17:00:00 20,6 9,8 15 8 29 16 N 24 0,0
24.05.2019 16:00:00 20,5 9,7 13 7 28 15 NNW 24 0,0
24.05.2019 15:00:00 20,7 10,2 15 8 31 17 NNW 48 0,0
24.05.2019 14:00:00 20,0 10,4 16 9 28 15 N 60 -
24.05.2019 13:00:00 19,0 8,6 13 7 28 15 N 60 0,0
24.05.2019 12:00:00 18,1 7,8 16 9 35 19 N 60 0,0
24.05.2019 11:00:00 16,5 6,9 18 10 31 17 N 60 0,0
24.05.2019 10:00:00 15,6 8,3 15 8 24 13 N 60 0,0
24.05.2019 09:00:00 14,5 8,7 15 8 22 12 N 60 0,0
24.05.2019 08:00:00 13,0 8,9 11 6 18 10 N 42 -
24.05.2019 07:00:00 9,7 8,5 5 3 11 6 NNW 0 0,0
24.05.2019 06:00:00 9,1 7,4 4 2 11 6 NW 0 0,0
24.05.2019 05:00:00 9,6 7,2 4 2 11 6 N 0 0,0
24.05.2019 04:00:00 10,6 7,1 5 3 15 8 N 0 0,0
24.05.2019 03:00:00 11,2 6,5 9 5 16 9 NNE 0 0,0
24.05.2019 02:00:00 12,8 6,8 8 4 16 9 N 0 -
24.05.2019 01:00:00 13,5 7,5 9 5 15 8 N 0 0,0
24.05.2019 00:00:00 14,0 7,7 8 4 18 10 NNE 0 0,0
23.05.2019 23:00:00 15,2 8,9 9 5 26 14 NNE 0 0,0
23.05.2019 22:00:00 17,2 11,0 8 4 26 14 NNW 24 0,0
23.05.2019 21:00:00 18,4 11,5 8 4 24 13 W 18 0,0
23.05.2019 20:00:00 19,0 11,3 13 7 29 16 WSW 12 -
23.05.2019 19:00:00 22,4 11,5 15 8 28 15 WSW 54 0,0
23.05.2019 18:00:00 21,8 11,2 11 6 22 12 WSW 48 0,0
23.05.2019 17:00:00 22,9 11,0 9 5 18 10 WSW 48 0,0
23.05.2019 16:00:00 23,5 10,9 8 4 21 11 WSW 60 0,0
23.05.2019 15:00:00 21,7 10,5 11 6 21 11 W 60 0,0
23.05.2019 14:00:00 22,4 11,8 8 4 18 10 WSW 60 -
23.05.2019 13:00:00 21,6 11,9 9 5 15 8 WSW 30 0,0
23.05.2019 12:00:00 20,6 11,8 8 4 13 7 WSW 36 0,0
23.05.2019 11:00:00 18,8 12,5 4 2 9 5 SW 36 0,0
23.05.2019 10:00:00 18,1 13,0 0 0 4 2 N 42 0,0
23.05.2019 09:00:00 15,4 12,2 0 0 4 2 N 48 0,0
23.05.2019 08:00:00 12,6 12,1 0 0 5 3 N 60 -
23.05.2019 07:00:00 8,8 8,7 4 2 5 3 NE 6 0,0
23.05.2019 06:00:00 9,0 8,9 2 1 5 3 NNE 0 0,0
23.05.2019 05:00:00 9,7 9,6 4 2 8 4 NE 0 0,0
23.05.2019 04:00:00 10,6 10,3 4 2 8 4 NE 0 0,0
23.05.2019 03:00:00 11,4 11,1 2 1 11 6 W 0 0,0
23.05.2019 02:00:00 11,9 11,4 2 1 5 3 NNE 0 -
23.05.2019 01:00:00 12,2 11,6 2 1 4 2 NNE 0 0,0
23.05.2019 00:00:00 12,5 11,6 0 0 4 2 N 0 0,0
22.05.2019 23:00:00 13,6 11,6 2 1 8 4 SSE 0 0,0
22.05.2019 22:00:00 16,1 12,3 4 2 8 4 SW 0 0,0
22.05.2019 21:00:00 19,1 10,4 4 2 15 8 W 30 0,0
22.05.2019 20:00:00 20,9 11,2 8 4 18 10 WSW 60 -
22.05.2019 19:00:00 22,2 10,7 9 5 18 10 W 60 0,0
22.05.2019 18:00:00 22,7 11,7 9 5 24 13 WSW 60 0,0
22.05.2019 17:00:00 22,7 9,8 9 5 18 10 WSW 60 0,0
22.05.2019 16:00:00 22,4 11,5 9 5 22 12 WSW 60 0,0
22.05.2019 15:00:00 22,4 11,5 9 5 21 11 WSW 60 0,0
22.05.2019 14:00:00 21,6 12,2 9 5 21 11 WSW 60 -
22.05.2019 13:00:00 21,4 12,0 9 5 18 10 SW 60 0,0
22.05.2019 12:00:00 20,7 12,7 8 4 13 7 WSW 60 0,0
22.05.2019 11:00:00 19,0 12,0 8 4 13 7 E 60 0,0
22.05.2019 10:00:00 17,0 11,5 8 4 13 7 E 60 0,0
22.05.2019 09:00:00 14,9 10,7 8 4 11 6 E 60 0,0
22.05.2019 08:00:00 12,0 10,1 4 2 8 4 NE 54 -
22.05.2019 07:00:00 9,6 8,7 5 3 8 4 NNE 0 0,0
22.05.2019 06:00:00 9,0 8,7 5 3 8 4 N 0 0,0
22.05.2019 05:00:00 9,3 8,8 4 2 8 4 NNE 0 0,0
22.05.2019 04:00:00 9,4 8,8 5 3 8 4 NNE 0 0,0
22.05.2019 03:00:00 9,9 9,3 5 3 8 4 N 0 0,0
22.05.2019 02:00:00 10,5 9,7 5 3 8 4 NNE 0 -
22.05.2019 01:00:00 11,2 9,9 4 2 9 5 N 0 0,0
22.05.2019 00:00:00 12,0 10,4 4 2 15 8 WNW 0 0,0
21.05.2019 23:00:00 13,2 10,0 0 0 8 4 N 0 0,0
21.05.2019 22:00:00 15,0 9,6 5 3 13 7 W 18 0,0
21.05.2019 21:00:00 17,2 11,0 5 3 18 10 W 48 0,0
21.05.2019 20:00:00 18,4 11,0 11 6 28 15 WSW 60 -
21.05.2019 19:00:00 18,9 11,5 15 8 29 16 WSW 60 0,0
21.05.2019 18:00:00 19,2 12,2 16 9 29 16 WSW 60 0,0
21.05.2019 17:00:00 19,5 12,7 16 9 28 15 WSW 60 0,0
21.05.2019 16:00:00 19,9 12,9 15 8 29 16 WSW 60 0,0
21.05.2019 15:00:00 19,1 13,1 15 8 26 14 WSW 36 0,0
21.05.2019 14:00:00 20,3 11,0 4 2 18 10 SE 60 -
21.05.2019 13:00:00 18,7 9,5 8 4 15 8 NNE 60 0,0
21.05.2019 12:00:00 18,0 10,1 5 3 13 7 N 60 0,0
21.05.2019 11:00:00 17,3 11,6 5 3 16 9 E 60 0,0
21.05.2019 10:00:00 15,6 11,2 5 3 15 8 ENE 60 0,0
21.05.2019 09:00:00 13,2 10,9 8 4 13 7 NNE 48 0,0
21.05.2019 08:00:00 9,8 9,7 4 2 8 4 NW 18 -
21.05.2019 07:00:00 8,2 7,9 5 3 8 4 WNW 0 0,0
21.05.2019 06:00:00 8,9 8,8 5 3 8 4 NNE 0 0,0
21.05.2019 05:00:00 9,0 8,4 4 2 11 6 NNW 0 0,0
21.05.2019 04:00:00 10,4 9,6 8 4 13 7 N 0 0,0
21.05.2019 03:00:00 10,9 9,7 5 3 13 7 N 0 0,0
21.05.2019 02:00:00 12,2 10,6 8 4 13 7 NNE 0 -
21.05.2019 01:00:00 12,8 11,5 5 3 8 4 NE 0 0,0
21.05.2019 00:00:00 13,0 11,9 4 2 11 6 NNE 0 0,0
20.05.2019 23:00:00 13,5 12,1 8 4 9 5 NNE 0 0,0
20.05.2019 22:00:00 13,5 12,4 0 0 9 5 N 0 0,0
20.05.2019 21:00:00 13,9 12,3 5 3 11 6 NNE 0 0,0
20.05.2019 20:00:00 14,1 12,5 4 2 9 5 NNW 0 -
20.05.2019 19:00:00 15,1 11,1 4 2 29 16 NNE 12 0,0
20.05.2019 18:00:00 17,0 10,6 16 9 29 16 WSW 6 0,0
20.05.2019 17:00:00 18,0 12,4 15 8 37 20 WSW 54 0,0

tt = Température de l'air
td = dewpoint
ff = Vitesse du vent
fx = gusts
dd = Direction du vent
sd = Ensoleillement
rr = Quantités de précipitations

stations d'obs. à proximité